createdAt,value
2017-05-07T00:00:11.020Z,1006.48
2017-05-07T00:01:23.553Z,1006.53
2017-05-07T00:02:36.085Z,1006.55
2017-05-07T00:03:48.653Z,1006.55
2017-05-07T00:05:00.869Z,1006.57
2017-05-07T00:06:13.122Z,1006.58
2017-05-07T00:07:25.690Z,1006.58
2017-05-07T00:08:38.232Z,1006.55
2017-05-07T00:09:50.464Z,1006.59
2017-05-07T00:11:02.703Z,1006.6
2017-05-07T00:12:15.242Z,1006.58
2017-05-07T00:13:27.200Z,1006.58
2017-05-07T00:14:39.441Z,1006.55
2017-05-07T00:15:51.962Z,1006.55
2017-05-07T00:17:04.511Z,1006.57
2017-05-07T00:18:16.779Z,1006.58
2017-05-07T00:19:29.306Z,1006.53
2017-05-07T00:20:41.523Z,1006.51
2017-05-07T00:21:53.766Z,1006.47
2017-05-07T00:23:06.017Z,1006.48
2017-05-07T00:24:18.234Z,1006.47
2017-05-07T00:25:30.132Z,1006.56
2017-05-07T00:26:42.671Z,1006.53
2017-05-07T00:27:55.224Z,1006.53
2017-05-07T00:29:07.142Z,1006.52
2017-05-07T00:30:19.694Z,1006.53
2017-05-07T00:31:31.951Z,1006.55
2017-05-07T00:32:44.533Z,1006.54
2017-05-07T00:33:57.072Z,1006.56
2017-05-07T00:35:09.614Z,1006.57
2017-05-07T00:36:21.845Z,1006.52
2017-05-07T00:37:34.392Z,1006.5
2017-05-07T00:38:46.937Z,1006.49
2017-05-07T00:39:59.458Z,1006.47
2017-05-07T00:41:12.004Z,1006.46
2017-05-07T00:42:24.564Z,1006.44
2017-05-07T00:43:37.144Z,1006.42
2017-05-07T00:44:49.694Z,1006.37
2017-05-07T00:46:02.260Z,1006.38
2017-05-07T00:47:14.458Z,1006.36
2017-05-07T00:48:26.681Z,1006.35
2017-05-07T00:49:39.227Z,1006.31
2017-05-07T00:50:51.775Z,1006.35
2017-05-07T00:52:04.289Z,1006.37
2017-05-07T00:53:16.527Z,1006.32
2017-05-07T00:54:28.759Z,1006.39
2017-05-07T00:55:41.280Z,1006.38
2017-05-07T00:56:53.841Z,1006.39
2017-05-07T00:58:06.368Z,1006.38
2017-05-07T00:59:18.589Z,1006.37
2017-05-07T01:00:30.490Z,1006.36
2017-05-07T01:01:43.015Z,1006.36
2017-05-07T01:02:55.254Z,1006.4
2017-05-07T01:04:07.501Z,1006.38
2017-05-07T01:05:19.747Z,1006.39
2017-05-07T01:06:31.966Z,1006.39
2017-05-07T01:07:43.914Z,1006.36
2017-05-07T01:08:56.462Z,1006.37
2017-05-07T01:10:08.995Z,1006.35
2017-05-07T01:11:21.526Z,1006.36
2017-05-07T01:12:34.049Z,1006.42
2017-05-07T01:13:46.591Z,1006.4
2017-05-07T01:14:59.416Z,1006.47
2017-05-07T01:16:11.656Z,1006.43
2017-05-07T01:17:23.578Z,1006.44
2017-05-07T01:18:35.529Z,1006.44
2017-05-07T01:19:48.073Z,1006.42
2017-05-07T01:21:00.295Z,1006.43
2017-05-07T01:22:12.240Z,1006.48
2017-05-07T01:23:24.765Z,1006.46
2017-05-07T01:24:37.301Z,1006.44
2017-05-07T01:25:49.824Z,1006.44
2017-05-07T01:27:02.364Z,1006.41
2017-05-07T01:28:14.920Z,1006.45
2017-05-07T01:29:26.893Z,1006.44
2017-05-07T01:30:39.437Z,1006.41
2017-05-07T01:31:51.701Z,1006.45
2017-05-07T01:33:04.247Z,1006.39
2017-05-07T01:34:16.475Z,1006.42
2017-05-07T01:35:28.121Z,1006.36
2017-05-07T01:36:40.655Z,1006.36
2017-05-07T01:37:52.880Z,1006.32
2017-05-07T01:39:05.135Z,1006.38
2017-05-07T01:40:17.401Z,1006.37
2017-05-07T01:41:29.621Z,1006.32
2017-05-07T01:42:41.871Z,1006.29
2017-05-07T01:43:54.411Z,1006.31
2017-05-07T01:45:06.936Z,1006.31
2017-05-07T01:46:19.181Z,1006.29
2017-05-07T01:47:31.404Z,1006.31
2017-05-07T01:48:43.947Z,1006.3
2017-05-07T01:49:56.514Z,1006.26
2017-05-07T01:51:08.765Z,1006.28
2017-05-07T01:52:20.991Z,1006.21
2017-05-07T01:53:33.234Z,1006.22
2017-05-07T01:54:45.476Z,1006.22
2017-05-07T01:55:57.722Z,1006.21
2017-05-07T01:57:10.244Z,1006.2
2017-05-07T01:58:22.710Z,1006.15
2017-05-07T01:59:35.265Z,1006.15
2017-05-07T02:00:47.810Z,1006.18
2017-05-07T02:02:00.359Z,1006.18
2017-05-07T02:03:12.925Z,1006.17
2017-05-07T02:04:25.415Z,1006.22
2017-05-07T02:05:37.960Z,1006.21
2017-05-07T02:06:50.512Z,1006.19
2017-05-07T02:08:03.057Z,1006.21
2017-05-07T02:09:15.307Z,1006.14
2017-05-07T02:10:27.824Z,1006.14
2017-05-07T02:11:40.369Z,1006.14
2017-05-07T02:12:52.865Z,1006.13
2017-05-07T02:14:05.460Z,1006.13
2017-05-07T02:15:17.432Z,1006.14
2017-05-07T02:16:29.952Z,1006.13
2017-05-07T02:17:42.200Z,1006.13
2017-05-07T02:18:54.741Z,1006.1
2017-05-07T02:20:07.269Z,1006.15
2017-05-07T02:21:19.212Z,1006.15
2017-05-07T02:22:31.762Z,1006.13
2017-05-07T02:23:44.001Z,1006.11
2017-05-07T02:24:56.550Z,1006.15
2017-05-07T02:26:09.099Z,1006.18
2017-05-07T02:27:21.342Z,1006.15
2017-05-07T02:28:33.583Z,1006.16
2017-05-07T02:29:45.813Z,1006.15
2017-05-07T02:30:58.383Z,1006.14
2017-05-07T02:32:10.924Z,1006.13
2017-05-07T02:33:23.471Z,1006.11
2017-05-07T02:34:35.722Z,1006.11
2017-05-07T02:35:47.972Z,1006.11
2017-05-07T02:37:00.508Z,1006.1
2017-05-07T02:38:13.056Z,1006.07
2017-05-07T02:39:25.275Z,1006.07
2017-05-07T02:40:37.822Z,1006.05
2017-05-07T02:41:50.293Z,1006.02
2017-05-07T02:43:02.834Z,1006
2017-05-07T02:44:15.062Z,1006.02
2017-05-07T02:45:27.607Z,1005.99
2017-05-07T02:46:40.126Z,1006
2017-05-07T02:47:52.674Z,1005.99
2017-05-07T02:49:05.199Z,1005.98
2017-05-07T02:50:17.735Z,1006.01
2017-05-07T02:51:30.255Z,1006.01
2017-05-07T02:52:42.780Z,1005.97
2017-05-07T02:53:55.327Z,1005.96
2017-05-07T02:55:07.526Z,1005.93
2017-05-07T02:56:19.768Z,1005.93
2017-05-07T02:57:32.014Z,1005.89
2017-05-07T02:58:44.539Z,1005.9
2017-05-07T02:59:57.059Z,1005.89
2017-05-07T03:01:09.608Z,1005.9
2017-05-07T03:02:21.882Z,1005.93
2017-05-07T03:03:34.425Z,1005.88
2017-05-07T03:04:46.644Z,1005.9
2017-05-07T03:05:59.189Z,1005.92
2017-05-07T03:07:11.707Z,1005.89
2017-05-07T03:08:23.971Z,1005.92
2017-05-07T03:09:36.498Z,1005.92
2017-05-07T03:10:48.744Z,1005.91
2017-05-07T03:12:01.240Z,1005.89
2017-05-07T03:13:13.190Z,1005.9
2017-05-07T03:14:26.049Z,1005.94
2017-05-07T03:15:38.283Z,1005.86
2017-05-07T03:16:50.849Z,1005.89
2017-05-07T03:18:03.349Z,1005.85
2017-05-07T03:19:15.571Z,1005.86
2017-05-07T03:20:28.114Z,1005.86
2017-05-07T03:21:40.663Z,1005.83
2017-05-07T03:22:53.182Z,1005.85
2017-05-07T03:24:05.728Z,1005.84
2017-05-07T03:25:17.949Z,1005.84
2017-05-07T03:26:30.490Z,1005.87
2017-05-07T03:27:42.718Z,1005.88
2017-05-07T03:28:55.279Z,1005.86
2017-05-07T03:30:07.829Z,1005.86
2017-05-07T03:31:20.379Z,1005.84
2017-05-07T03:32:32.897Z,1005.8
2017-05-07T03:33:45.448Z,1005.78
2017-05-07T03:34:57.993Z,1005.84
2017-05-07T03:36:10.187Z,1005.84
2017-05-07T03:37:22.735Z,1005.85
2017-05-07T03:38:34.951Z,1005.86
2017-05-07T03:39:47.489Z,1005.93
2017-05-07T03:40:59.999Z,1005.86
2017-05-07T03:42:12.515Z,1005.85
2017-05-07T03:43:25.059Z,1005.84
2017-05-07T03:44:37.305Z,1005.84
2017-05-07T03:45:49.802Z,1005.82
2017-05-07T03:47:02.327Z,1005.82
2017-05-07T03:48:14.569Z,1005.84
2017-05-07T03:49:27.094Z,1005.85
2017-05-07T03:50:39.639Z,1005.86
2017-05-07T03:51:52.183Z,1005.87
2017-05-07T03:53:04.705Z,1005.87
2017-05-07T03:54:17.225Z,1005.91
2017-05-07T03:55:29.442Z,1005.92
2017-05-07T03:56:41.657Z,1005.88
2017-05-07T03:57:53.868Z,1005.87
2017-05-07T03:59:06.409Z,1005.86
2017-05-07T04:00:18.954Z,1005.89
2017-05-07T04:01:31.476Z,1005.86
2017-05-07T04:02:43.721Z,1005.88
2017-05-07T04:03:56.270Z,1005.9
2017-05-07T04:05:08.464Z,1005.88
2017-05-07T04:06:20.984Z,1005.86
2017-05-07T04:07:33.555Z,1005.84
2017-05-07T04:08:46.354Z,1005.89
2017-05-07T04:09:58.846Z,1005.86
2017-05-07T04:11:11.390Z,1005.88
2017-05-07T04:12:23.631Z,1005.89
2017-05-07T04:13:35.886Z,1005.86
2017-05-07T04:14:48.431Z,1005.9
2017-05-07T04:16:00.978Z,1005.88
2017-05-07T04:17:13.224Z,1005.82
2017-05-07T04:18:25.765Z,1005.83
2017-05-07T04:19:38.286Z,1005.84
2017-05-07T04:20:50.825Z,1005.86
2017-05-07T04:22:03.353Z,1005.9
2017-05-07T04:23:15.877Z,1005.87
2017-05-07T04:24:28.395Z,1005.86
2017-05-07T04:25:40.916Z,1005.91
2017-05-07T04:26:53.463Z,1005.91
2017-05-07T04:28:05.988Z,1005.93
2017-05-07T04:29:18.533Z,1005.95
2017-05-07T04:30:31.392Z,1005.97
2017-05-07T04:31:43.920Z,1005.95
2017-05-07T04:32:56.483Z,1005.94
2017-05-07T04:34:09.010Z,1005.97
2017-05-07T04:35:21.562Z,1006.01
2017-05-07T04:36:34.055Z,1005.98
2017-05-07T04:37:46.298Z,1005.97
2017-05-07T04:38:58.822Z,1006
2017-05-07T04:40:11.342Z,1005.99
2017-05-07T04:41:24.188Z,1006.01
2017-05-07T04:42:36.712Z,1006
2017-05-07T04:43:49.259Z,1006.02
2017-05-07T04:45:01.804Z,1005.99
2017-05-07T04:46:14.351Z,1006.03
2017-05-07T04:47:26.922Z,1006.01
2017-05-07T04:48:39.467Z,1006.03
2017-05-07T04:49:52.059Z,1006.02
2017-05-07T04:51:04.284Z,1006.02
2017-05-07T04:52:16.840Z,1006.07
2017-05-07T04:53:29.400Z,1006.07
2017-05-07T04:54:41.947Z,1006.08
2017-05-07T04:55:54.531Z,1006.06
2017-05-07T04:57:07.034Z,1006.11
2017-05-07T04:58:19.555Z,1006.14
2017-05-07T04:59:32.076Z,1006.14
2017-05-07T05:00:44.601Z,1006.17
2017-05-07T05:01:56.843Z,1006.18
2017-05-07T05:03:09.681Z,1006.19
2017-05-07T05:04:22.211Z,1006.24
2017-05-07T05:05:34.752Z,1006.23
2017-05-07T05:06:47.322Z,1006.28
2017-05-07T05:07:59.850Z,1006.25
2017-05-07T05:09:11.774Z,1006.25
2017-05-07T05:10:23.996Z,1006.33
2017-05-07T05:11:36.269Z,1006.33
2017-05-07T05:12:48.824Z,1006.38
2017-05-07T05:14:01.357Z,1006.4
2017-05-07T05:15:13.305Z,1006.4
2017-05-07T05:16:25.848Z,1006.44
2017-05-07T05:17:38.043Z,1006.44
2017-05-07T05:18:50.611Z,1006.36
2017-05-07T05:20:03.149Z,1006.36
2017-05-07T05:21:15.373Z,1006.36
2017-05-07T05:22:27.901Z,1006.37
2017-05-07T05:23:40.149Z,1006.4
2017-05-07T05:24:52.984Z,1006.42
2017-05-07T05:26:05.190Z,1006.42
2017-05-07T05:27:17.140Z,1006.44
2017-05-07T05:28:29.680Z,1006.44
2017-05-07T05:29:41.928Z,1006.5
2017-05-07T05:30:54.473Z,1006.48
2017-05-07T05:32:07.016Z,1006.51
2017-05-07T05:33:19.558Z,1006.53
2017-05-07T05:34:32.084Z,1006.56
2017-05-07T05:35:44.287Z,1006.57
2017-05-07T05:36:56.829Z,1006.57
2017-05-07T05:38:09.363Z,1006.62
2017-05-07T05:39:21.869Z,1006.6
2017-05-07T05:40:34.416Z,1006.62
2017-05-07T05:41:46.958Z,1006.58
2017-05-07T05:42:59.456Z,1006.58
2017-05-07T05:44:11.728Z,1006.59
2017-05-07T05:45:24.275Z,1006.63
2017-05-07T05:46:36.819Z,1006.62
2017-05-07T05:47:49.062Z,1006.63
2017-05-07T05:49:01.587Z,1006.62
2017-05-07T05:50:13.846Z,1006.62
2017-05-07T05:51:26.350Z,1006.65
2017-05-07T05:52:38.874Z,1006.68
2017-05-07T05:53:51.417Z,1006.68
2017-05-07T05:55:03.963Z,1006.72
2017-05-07T05:56:16.188Z,1006.73
2017-05-07T05:57:28.960Z,1006.66
2017-05-07T05:58:41.518Z,1006.72
2017-05-07T05:59:54.064Z,1006.7
2017-05-07T06:01:06.597Z,1006.73
2017-05-07T06:02:19.141Z,1006.69
2017-05-07T06:03:31.402Z,1006.74
2017-05-07T06:04:43.612Z,1006.75
2017-05-07T06:05:56.109Z,1006.67
2017-05-07T06:07:08.390Z,1006.65
2017-05-07T06:08:20.939Z,1006.69
2017-05-07T06:09:33.493Z,1006.69
2017-05-07T06:10:45.713Z,1006.69
2017-05-07T06:11:57.951Z,1006.66
2017-05-07T06:13:10.481Z,1006.69
2017-05-07T06:14:23.053Z,1006.72
2017-05-07T06:15:35.599Z,1006.74
2017-05-07T06:16:47.818Z,1006.79
2017-05-07T06:18:00.081Z,1006.8
2017-05-07T06:19:12.629Z,1006.83
2017-05-07T06:20:24.852Z,1006.84
2017-05-07T06:21:37.391Z,1006.86
2017-05-07T06:22:49.594Z,1006.89
2017-05-07T06:24:02.142Z,1006.89
2017-05-07T06:25:14.379Z,1006.96
2017-05-07T06:26:26.584Z,1006.97
2017-05-07T06:27:38.508Z,1006.97
2017-05-07T06:28:51.028Z,1007.02
2017-05-07T06:30:03.887Z,1007.02
2017-05-07T06:31:15.790Z,1007.05
2017-05-07T06:32:28.333Z,1007.03
2017-05-07T06:33:40.586Z,1007.03
2017-05-07T06:34:52.834Z,1006.96
2017-05-07T06:36:05.357Z,1006.99
2017-05-07T06:37:17.599Z,1006.98
2017-05-07T06:38:29.841Z,1007.01
2017-05-07T06:39:42.063Z,1007.08
2017-05-07T06:40:54.889Z,1007.15
2017-05-07T06:42:07.432Z,1007.13
2017-05-07T06:43:19.055Z,1007.24
2017-05-07T06:44:31.598Z,1007.38
2017-05-07T06:45:43.517Z,1007.45
2017-05-07T06:46:56.063Z,1007.26
2017-05-07T06:48:08.560Z,1007.27
2017-05-07T06:49:21.082Z,1007.19
2017-05-07T06:50:33.325Z,1007.14
2017-05-07T06:51:45.827Z,1007.18
2017-05-07T06:52:58.360Z,1007.25
2017-05-07T06:54:10.569Z,1007.25
2017-05-07T06:55:22.792Z,1007.22
2017-05-07T06:56:35.351Z,1007.18
2017-05-07T06:57:47.879Z,1007.23
2017-05-07T06:59:00.425Z,1007.22
2017-05-07T07:00:12.696Z,1007.26
2017-05-07T07:01:25.263Z,1007.2
2017-05-07T07:02:37.789Z,1007.19
2017-05-07T07:03:50.034Z,1007.16
2017-05-07T07:05:02.558Z,1007.18
2017-05-07T07:06:14.781Z,1007.18
2017-05-07T07:07:26.694Z,1007.16
2017-05-07T07:08:39.215Z,1007.13
2017-05-07T07:09:51.738Z,1007.15
2017-05-07T07:11:04.301Z,1007.17
2017-05-07T07:12:16.548Z,1007.25
2017-05-07T07:13:28.791Z,1007.31
2017-05-07T07:14:41.012Z,1007.35
2017-05-07T07:15:53.547Z,1007.36
2017-05-07T07:17:06.061Z,1007.39
2017-05-07T07:18:18.287Z,1007.44
2017-05-07T07:19:30.827Z,1007.42
2017-05-07T07:20:43.051Z,1007.45
2017-05-07T07:21:55.602Z,1007.39
2017-05-07T07:23:07.844Z,1007.38
2017-05-07T07:24:20.082Z,1007.35
2017-05-07T07:25:32.626Z,1007.39
2017-05-07T07:26:45.152Z,1007.36
2017-05-07T07:27:57.654Z,1007.41
2017-05-07T07:29:09.897Z,1007.44
2017-05-07T07:30:22.123Z,1007.43
2017-05-07T07:31:34.066Z,1007.39
2017-05-07T07:32:46.307Z,1007.45
2017-05-07T07:33:58.833Z,1007.47
2017-05-07T07:35:11.077Z,1007.45
2017-05-07T07:36:23.020Z,1007.36
2017-05-07T07:37:35.571Z,1007.29
2017-05-07T07:38:48.062Z,1007.32
2017-05-07T07:40:00.616Z,1007.39
2017-05-07T07:41:12.872Z,1007.47
2017-05-07T07:42:25.100Z,1007.48
2017-05-07T07:43:37.321Z,1007.5
2017-05-07T07:44:49.546Z,1007.53
2017-05-07T07:46:02.369Z,1007.54
2017-05-07T07:47:14.913Z,1007.56
2017-05-07T07:48:27.460Z,1007.49
2017-05-07T07:49:39.975Z,1007.54
2017-05-07T07:50:52.263Z,1007.56
2017-05-07T07:52:04.813Z,1007.55
2017-05-07T07:53:17.039Z,1007.52
2017-05-07T07:54:29.315Z,1007.51
2017-05-07T07:55:41.873Z,1007.51
2017-05-07T07:56:54.400Z,1007.48
2017-05-07T07:58:06.922Z,1007.44
2017-05-07T07:59:19.460Z,1007.46
2017-05-07T08:00:31.741Z,1007.48
2017-05-07T08:01:44.269Z,1007.52
2017-05-07T08:02:56.809Z,1007.57
2017-05-07T08:04:09.368Z,1007.56
2017-05-07T08:05:21.897Z,1007.58
2017-05-07T08:06:34.122Z,1007.48
2017-05-07T08:07:46.684Z,1007.52
2017-05-07T08:08:59.214Z,1007.59
2017-05-07T08:10:11.763Z,1007.6
2017-05-07T08:11:24.323Z,1007.63
2017-05-07T08:12:36.865Z,1007.8
2017-05-07T08:13:49.088Z,1007.69
2017-05-07T08:15:00.998Z,1007.67
2017-05-07T08:16:12.939Z,1007.65
2017-05-07T08:17:25.458Z,1007.64
2017-05-07T08:18:38.007Z,1007.69
2017-05-07T08:19:50.541Z,1007.66
2017-05-07T08:21:03.069Z,1007.65
2017-05-07T08:22:15.300Z,1007.66
2017-05-07T08:23:27.552Z,1007.73
2017-05-07T08:24:40.084Z,1007.82
2017-05-07T08:25:52.334Z,1007.78
2017-05-07T08:27:04.870Z,1007.79
2017-05-07T08:28:17.469Z,1007.77
2017-05-07T08:29:29.719Z,1007.81
2017-05-07T08:30:42.266Z,1007.87
2017-05-07T08:31:54.500Z,1007.91
2017-05-07T08:33:07.004Z,1007.98
2017-05-07T08:34:19.566Z,1007.91
2017-05-07T08:35:31.823Z,1007.92
2017-05-07T08:36:44.384Z,1007.88
2017-05-07T08:37:56.906Z,1007.83
2017-05-07T08:39:09.454Z,1007.79
2017-05-07T08:40:22.304Z,1007.69
2017-05-07T08:41:34.841Z,1007.65
2017-05-07T08:42:46.787Z,1007.65
2017-05-07T08:43:59.316Z,1007.64
2017-05-07T08:45:11.865Z,1007.8
2017-05-07T08:46:24.125Z,1007.75
2017-05-07T08:47:36.683Z,1007.88
2017-05-07T08:48:48.953Z,1007.9
2017-05-07T08:50:01.514Z,1007.88
2017-05-07T08:51:14.043Z,1007.9
2017-05-07T08:52:26.266Z,1007.9
2017-05-07T08:53:38.530Z,1007.91
2017-05-07T08:54:51.079Z,1007.98
2017-05-07T08:56:03.325Z,1008
2017-05-07T08:57:15.250Z,1008.04
2017-05-07T08:58:27.771Z,1008.05
2017-05-07T08:59:40.019Z,1007.99
2017-05-07T09:00:52.534Z,1008
2017-05-07T09:02:05.050Z,1008.03
2017-05-07T09:03:17.022Z,1008.07
2017-05-07T09:04:29.598Z,1008.06
2017-05-07T09:05:42.160Z,1008.11
2017-05-07T09:06:54.694Z,1008.08
2017-05-07T09:08:06.938Z,1008.09
2017-05-07T09:09:19.180Z,1008.06
2017-05-07T09:10:31.432Z,1008.1
2017-05-07T09:11:43.972Z,1008.06
2017-05-07T09:12:56.494Z,1008.08
2017-05-07T09:14:09.039Z,1008.08
2017-05-07T09:15:21.293Z,1008.04
2017-05-07T09:16:33.832Z,1008.06
2017-05-07T09:17:46.381Z,1008.07
2017-05-07T09:18:58.914Z,1008.11
2017-05-07T09:20:11.474Z,1008.11
2017-05-07T09:21:23.743Z,1008.12
2017-05-07T09:22:35.961Z,1008.19
2017-05-07T09:23:48.185Z,1008.22
2017-05-07T09:25:00.731Z,1008.23
2017-05-07T09:26:12.369Z,1008.25
2017-05-07T09:27:24.920Z,1008.32
2017-05-07T09:28:37.460Z,1008.35
2017-05-07T09:29:50.014Z,1008.3
2017-05-07T09:31:02.560Z,1008.17
2017-05-07T09:32:14.798Z,1008.19
2017-05-07T09:33:27.355Z,1008.15
2017-05-07T09:34:39.594Z,1008.06
2017-05-07T09:35:52.142Z,1008.11
2017-05-07T09:37:04.392Z,1008.03
2017-05-07T09:38:16.978Z,1008.09
2017-05-07T09:39:29.274Z,1008.1
2017-05-07T09:40:41.793Z,1008.1
2017-05-07T09:41:54.320Z,1008.09
2017-05-07T09:43:06.870Z,1008.08
2017-05-07T09:44:19.128Z,1008.09
2017-05-07T09:45:31.675Z,1008.04
2017-05-07T09:46:44.228Z,1008.06
2017-05-07T09:47:56.770Z,1008.15
2017-05-07T09:49:09.315Z,1008.11
2017-05-07T09:50:21.862Z,1008.12
2017-05-07T09:51:34.407Z,1008.15
2017-05-07T09:52:46.935Z,1008.15
2017-05-07T09:53:59.195Z,1008.17
2017-05-07T09:55:11.720Z,1008.17
2017-05-07T09:56:23.653Z,1008.15
2017-05-07T09:57:36.196Z,1008.16
2017-05-07T09:58:48.458Z,1008.2
2017-05-07T10:00:01.009Z,1008.15
2017-05-07T10:01:12.935Z,1008.16
2017-05-07T10:02:25.451Z,1008.22
2017-05-07T10:03:37.701Z,1008.25
2017-05-07T10:04:50.281Z,1008.23
2017-05-07T10:06:02.533Z,1008.25
2017-05-07T10:07:14.160Z,1008.23
2017-05-07T10:08:26.376Z,1008.27
2017-05-07T10:09:38.322Z,1008.28
2017-05-07T10:10:50.565Z,1008.22
2017-05-07T10:12:03.099Z,1008.2
2017-05-07T10:13:15.039Z,1008.17
2017-05-07T10:14:27.577Z,1008.14
2017-05-07T10:15:39.823Z,1008.12
2017-05-07T10:16:51.755Z,1008.09
2017-05-07T10:18:04.301Z,1008.14
2017-05-07T10:19:16.840Z,1008.14
2017-05-07T10:20:29.093Z,1008.21
2017-05-07T10:21:41.635Z,1008.13
2017-05-07T10:22:54.190Z,1008.08
2017-05-07T10:24:06.727Z,1008.1
2017-05-07T10:25:19.277Z,1008.07
2017-05-07T10:26:31.246Z,1008.08
2017-05-07T10:27:43.768Z,1008.09
2017-05-07T10:28:56.318Z,1008.15
2017-05-07T10:30:08.861Z,1008.14
2017-05-07T10:31:21.402Z,1008.09
2017-05-07T10:32:33.969Z,1008.01
2017-05-07T10:33:46.512Z,1008.03
2017-05-07T10:34:59.024Z,1008.03
2017-05-07T10:36:11.567Z,1008.04
2017-05-07T10:37:24.102Z,1008.04
2017-05-07T10:38:36.645Z,1008
2017-05-07T10:39:49.477Z,1007.99
2017-05-07T10:41:02.026Z,1008.04
2017-05-07T10:42:14.593Z,1008.02
2017-05-07T10:43:27.155Z,1008.04
2017-05-07T10:44:39.678Z,1007.99
2017-05-07T10:45:51.929Z,1008.02
2017-05-07T10:47:04.449Z,1007.98
2017-05-07T10:48:16.992Z,1008.06
2017-05-07T10:49:29.562Z,1007.98
2017-05-07T10:50:42.112Z,1007.98
2017-05-07T10:51:54.660Z,1007.91
2017-05-07T10:53:07.225Z,1007.87
2017-05-07T10:54:19.202Z,1007.93
2017-05-07T10:55:31.738Z,1007.95
2017-05-07T10:56:44.262Z,1007.95
2017-05-07T10:57:56.512Z,1007.94
2017-05-07T10:59:08.438Z,1007.9
2017-05-07T11:00:20.679Z,1007.91
2017-05-07T11:01:33.243Z,1007.97
2017-05-07T11:02:45.767Z,1007.98
2017-05-07T11:03:58.317Z,1007.93
2017-05-07T11:05:10.594Z,1007.91
2017-05-07T11:06:22.877Z,1007.94
2017-05-07T11:07:35.434Z,1007.96
2017-05-07T11:08:48.004Z,1007.95
2017-05-07T11:10:00.550Z,1007.94
2017-05-07T11:11:12.796Z,1007.99
2017-05-07T11:12:25.054Z,1008
2017-05-07T11:13:37.306Z,1007.84
2017-05-07T11:14:49.860Z,1007.87
2017-05-07T11:16:02.406Z,1007.85
2017-05-07T11:17:14.351Z,1007.79
2017-05-07T11:18:26.918Z,1007.77
2017-05-07T11:19:39.492Z,1007.79
2017-05-07T11:20:52.041Z,1007.79
2017-05-07T11:22:04.601Z,1007.85
2017-05-07T11:23:17.180Z,1007.8
2017-05-07T11:24:29.451Z,1007.8
2017-05-07T11:25:41.997Z,1007.76
2017-05-07T11:26:54.542Z,1007.78
2017-05-07T11:28:06.788Z,1007.72
2017-05-07T11:29:19.356Z,1007.69
2017-05-07T11:30:31.920Z,1007.68
2017-05-07T11:31:44.148Z,1007.68
2017-05-07T11:32:56.697Z,1007.68
2017-05-07T11:34:08.982Z,1007.69
2017-05-07T11:35:21.539Z,1007.66
2017-05-07T11:36:34.089Z,1007.66
2017-05-07T11:37:46.653Z,1007.62
2017-05-07T11:38:59.216Z,1007.58
2017-05-07T11:40:11.446Z,1007.51
2017-05-07T11:41:23.989Z,1007.51
2017-05-07T11:42:35.929Z,1007.51
2017-05-07T11:43:48.479Z,1007.45
2017-05-07T11:45:01.055Z,1007.46
2017-05-07T11:46:13.573Z,1007.53
2017-05-07T11:47:25.850Z,1007.44
2017-05-07T11:48:38.412Z,1007.47
2017-05-07T11:49:50.991Z,1007.46
2017-05-07T11:51:03.278Z,1007.46
2017-05-07T11:52:15.521Z,1007.48
2017-05-07T11:53:28.083Z,1007.52
2017-05-07T11:54:40.352Z,1007.42
2017-05-07T11:55:52.616Z,1007.52
2017-05-07T11:57:05.187Z,1007.56
2017-05-07T11:58:17.458Z,1007.52
2017-05-07T11:59:30.004Z,1007.53
2017-05-07T12:00:42.528Z,1007.47
2017-05-07T12:01:55.353Z,1007.46
2017-05-07T12:03:07.636Z,1007.46
2017-05-07T12:04:19.615Z,1007.45
2017-05-07T12:05:32.188Z,1007.38
2017-05-07T12:06:44.751Z,1007.37
2017-05-07T12:07:57.302Z,1007.47
2017-05-07T12:09:09.847Z,1007.47
2017-05-07T12:10:22.421Z,1007.43
2017-05-07T12:11:34.990Z,1007.44
2017-05-07T12:12:47.563Z,1007.36
2017-05-07T12:14:00.108Z,1007.43
2017-05-07T12:15:12.347Z,1007.4
2017-05-07T12:16:24.900Z,1007.41
2017-05-07T12:17:37.763Z,1007.43
2017-05-07T12:18:50.316Z,1007.34
2017-05-07T12:20:02.588Z,1007.31
2017-05-07T12:21:15.158Z,1007.31
2017-05-07T12:22:27.731Z,1007.36
2017-05-07T12:23:40.246Z,1007.33
2017-05-07T12:24:52.793Z,1007.38
2017-05-07T12:26:05.034Z,1007.4
2017-05-07T12:27:17.306Z,1007.39
2017-05-07T12:28:29.885Z,1007.39
2017-05-07T12:29:42.430Z,1007.42
2017-05-07T12:30:54.972Z,1007.43
2017-05-07T12:32:07.227Z,1007.47
2017-05-07T12:33:19.189Z,1007.47
2017-05-07T12:34:31.740Z,1007.53
2017-05-07T12:35:44.284Z,1007.42
2017-05-07T12:36:56.552Z,1007.43
2017-05-07T12:38:09.098Z,1007.38
2017-05-07T12:39:21.389Z,1007.34
2017-05-07T12:40:33.649Z,1007.38
2017-05-07T12:41:46.214Z,1007.37
2017-05-07T12:42:58.773Z,1007.36
2017-05-07T12:44:10.770Z,1007.35
2017-05-07T12:45:23.323Z,1007.36
2017-05-07T12:46:35.571Z,1007.25
2017-05-07T12:47:47.828Z,1007.26
2017-05-07T12:49:00.091Z,1007.27
2017-05-07T12:50:12.349Z,1007.19
2017-05-07T12:51:24.575Z,1007.23
2017-05-07T12:52:37.120Z,1007.17
2017-05-07T12:53:49.687Z,1007.11
2017-05-07T12:55:01.933Z,1007.04
2017-05-07T12:56:14.486Z,1006.99
2017-05-07T12:57:27.028Z,1007.01
2017-05-07T12:58:39.578Z,1007.06
2017-05-07T12:59:52.125Z,1007.04
2017-05-07T13:01:04.375Z,1007
2017-05-07T13:02:16.620Z,1007.03
2017-05-07T13:03:29.196Z,1007.04
2017-05-07T13:04:41.779Z,1007.11
2017-05-07T13:05:54.357Z,1007.05
2017-05-07T13:07:06.595Z,1007.04
2017-05-07T13:08:19.139Z,1007.03
2017-05-07T13:09:31.696Z,1007.01
2017-05-07T13:10:44.230Z,1006.98
2017-05-07T13:11:56.780Z,1007
2017-05-07T13:13:09.058Z,1006.96
2017-05-07T13:14:21.317Z,1006.96
2017-05-07T13:15:33.879Z,1006.93
2017-05-07T13:16:46.151Z,1006.98
2017-05-07T13:17:58.706Z,1006.93
2017-05-07T13:19:11.262Z,1006.93
2017-05-07T13:20:23.501Z,1006.88
2017-05-07T13:21:35.746Z,1006.92
2017-05-07T13:22:48.315Z,1006.89
2017-05-07T13:24:00.871Z,1006.85
2017-05-07T13:25:13.410Z,1006.86
2017-05-07T13:26:25.660Z,1006.86
2017-05-07T13:27:38.199Z,1006.83
2017-05-07T13:28:50.447Z,1006.82
2017-05-07T13:30:02.689Z,1006.8
2017-05-07T13:31:14.643Z,1006.79
2017-05-07T13:32:27.235Z,1006.82
2017-05-07T13:33:39.793Z,1006.8
2017-05-07T13:34:52.351Z,1006.75
2017-05-07T13:36:04.930Z,1006.69
2017-05-07T13:37:17.201Z,1006.71
2017-05-07T13:38:29.436Z,1006.76
2017-05-07T13:39:41.671Z,1006.75
2017-05-07T13:40:54.241Z,1006.8
2017-05-07T13:42:06.799Z,1006.76
2017-05-07T13:43:19.358Z,1006.76
2017-05-07T13:44:31.929Z,1006.81
2017-05-07T13:45:44.473Z,1006.82
2017-05-07T13:46:57.007Z,1006.8
2017-05-07T13:48:09.562Z,1006.76
2017-05-07T13:49:22.115Z,1006.78
2017-05-07T13:50:34.686Z,1006.76
2017-05-07T13:51:47.225Z,1006.71
2017-05-07T13:52:59.787Z,1006.75
2017-05-07T13:54:12.032Z,1006.77
2017-05-07T13:55:24.586Z,1006.77
2017-05-07T13:56:36.812Z,1006.73
2017-05-07T13:57:49.073Z,1006.8
2017-05-07T13:59:01.353Z,1006.8
2017-05-07T14:00:13.920Z,1006.76
2017-05-07T14:01:26.485Z,1006.72
2017-05-07T14:02:39.042Z,1006.73
2017-05-07T14:03:51.610Z,1006.7
2017-05-07T14:05:03.857Z,1006.68
2017-05-07T14:06:16.129Z,1006.6
2017-05-07T14:07:28.675Z,1006.63
2017-05-07T14:08:40.618Z,1006.6
2017-05-07T14:09:53.180Z,1006.62
2017-05-07T14:11:05.760Z,1006.61
2017-05-07T14:12:18.022Z,1006.6
2017-05-07T14:13:30.267Z,1006.59
2017-05-07T14:14:42.550Z,1006.61
2017-05-07T14:15:55.117Z,1006.59
2017-05-07T14:17:07.658Z,1006.59
2017-05-07T14:18:19.884Z,1006.63
2017-05-07T14:19:32.128Z,1006.58
2017-05-07T14:20:44.656Z,1006.65
2017-05-07T14:21:57.223Z,1006.64
2017-05-07T14:23:09.468Z,1006.61
2017-05-07T14:24:21.721Z,1006.56
2017-05-07T14:25:33.963Z,1006.5
2017-05-07T14:26:46.536Z,1006.49
2017-05-07T14:27:59.131Z,1006.47
2017-05-07T14:29:11.694Z,1006.48
2017-05-07T14:30:23.644Z,1006.47
2017-05-07T14:31:35.886Z,1006.44
2017-05-07T14:32:48.437Z,1006.46
2017-05-07T14:34:00.962Z,1006.46
2017-05-07T14:35:12.930Z,1006.43
2017-05-07T14:36:25.194Z,1006.47
2017-05-07T14:37:37.747Z,1006.42
2017-05-07T14:38:49.382Z,1006.39